Blandford, Massachusetts
Current Conditions -  °F | °C
As of 4:53 PM on Monday 20 Oct 2014 (Local Time) from KBAF Reporting Station
Broken Clouds Broken Clouds  
Wind Chill: 12°   Ceiling: 10000
Heat Index: 12°   Visibility: 10mi
Dew Point:   Wind: 5mph
Humidity: 50%   Direction: 170°S
Pressure: 29.97"   Gusts: NA
Location:  42.18°N, 72.93°W
Report Text: KBAF 202053Z 17004KT 10SM BKN100 BKN120 12/02 A2997 RMK AO2 SLP153 T01170017 56001
Loading
Personal Weather Stations






























Interactive Weather Map
Tropical Storm Tracking
New forecast layout! Learn more

10-Day Weather Forecast

Advertisements
Track Severe Weather on mobile